Time;durP1;ratioP1;P1;durP2;ratioP2;P2;SDS_P1;SDS_P2;PMS_P1;PMS_P2;Temp;Humidity;BMP_temperature;BMP_pressure;BME280_temperature;BME280_humidity;BME280_pressure;Samples;Min_cycle;Max_cycle;Signal;HPM_P1;HPM_P2
2021/10/26 00:01:06;;;;;;;42.17;23.33;;;13.20;99.90;;;;;;6161365;23;20505;-84
2021/10/26 00:03:31;;;;;;;49.80;26.73;;;13.20;99.90;;;;;;6161989;23;20578;-85
2021/10/26 00:05:57;;;;;;;46.40;23.40;;;13.20;99.90;;;;;;6161270;23;20156;-84
2021/10/26 00:08:23;;;;;;;41.03;21.93;;;13.10;99.90;;;;;;6161430;23;20230;-85
2021/10/26 00:10:49;;;;;;;39.40;21.37;;;13.10;99.90;;;;;;6162155;23;20231;-85
2021/10/26 00:13:15;;;;;;;39.10;19.40;;;13.00;99.90;;;;;;6161652;23;20180;-84
2021/10/26 00:15:41;;;;;;;38.17;20.63;;;13.00;99.90;;;;;;6161961;23;20149;-84
2021/10/26 00:18:07;;;;;;;37.93;19.87;;;13.10;99.90;;;;;;6161343;23;20148;-83
2021/10/26 00:20:33;;;;;;;40.57;22.80;;;13.00;99.90;;;;;;6160920;23;20658;-84
2021/10/26 00:22:59;;;;;;;36.73;18.70;;;13.00;99.90;;;;;;6161927;23;20159;-84
2021/10/26 00:25:28;;;;;;;41.13;21.17;;;13.00;99.90;;;;;;6162158;23;20148;-84
2021/10/26 00:27:53;;;;;;;35.47;20.33;;;13.00;99.90;;;;;;6162676;23;20208;-84
2021/10/26 00:30:19;;;;;;;31.67;18.30;;;12.90;99.90;;;;;;6163242;23;20148;-83
2021/10/26 00:32:45;;;;;;;31.20;19.67;;;12.80;99.90;;;;;;6162951;23;20156;-84
2021/10/26 00:35:11;;;;;;;32.67;20.13;;;12.90;99.90;;;;;;6175918;23;20136;-83
2021/10/26 00:37:36;;;;;;;39.30;24.27;;;12.90;99.90;;;;;;6211050;23;20160;-82
2021/10/26 00:40:05;;;;;;;37.80;20.40;;;12.80;99.90;;;;;;6185096;23;20145;-84
2021/10/26 00:42:32;;;;;;;37.30;23.97;;;12.70;99.90;;;;;;6184461;23;20187;-83
2021/10/26 00:44:57;;;;;;;32.07;19.63;;;12.60;99.90;;;;;;6184821;23;20205;-84
2021/10/26 00:47:23;;;;;;;34.07;18.33;;;12.60;99.90;;;;;;6183539;23;20137;-85
2021/10/26 00:49:49;;;;;;;35.87;18.60;;;12.60;99.90;;;;;;6178052;23;20141;-84
2021/10/26 00:52:14;;;;;;;31.23;19.30;;;12.70;99.90;;;;;;6185505;23;20215;-84
2021/10/26 00:54:40;;;;;;;37.73;21.37;;;12.70;99.90;;;;;;6185262;23;20148;-84
2021/10/26 00:57:06;;;;;;;30.20;17.63;;;12.70;99.90;;;;;;6182428;23;20219;-83
2021/10/26 00:59:32;;;;;;;32.67;19.73;;;12.70;99.90;;;;;;6183573;23;20152;-84
2021/10/26 01:01:58;;;;;;;34.23;22.87;;;12.70;99.90;;;;;;6164354;23;20638;-84
2021/10/26 01:04:23;;;;;;;29.80;17.00;;;12.80;99.90;;;;;;6161418;23;20472;-84
2021/10/26 01:06:49;;;;;;;31.37;18.47;;;12.80;99.90;;;;;;6161938;23;20164;-85
2021/10/26 01:09:16;;;;;;;33.87;19.00;;;12.80;99.90;;;;;;6160929;23;20496;-84
2021/10/26 01:11:44;;;;;;;33.33;18.43;;;12.80;99.90;;;;;;6161338;23;20153;-84
2021/10/26 01:14:12;;;;;;;35.73;18.97;;;12.90;99.90;;;;;;6160782;23;20238;-84
2021/10/26 01:16:38;;;;;;;27.90;16.47;;;12.80;99.90;;;;;;6160904;23;20156;-83
2021/10/26 01:19:04;;;;;;;32.57;19.60;;;12.90;99.90;;;;;;6160797;23;20156;-84
2021/10/26 01:21:30;;;;;;;31.53;16.47;;;12.90;99.90;;;;;;6160922;23;20197;-84
2021/10/26 01:23:56;;;;;;;29.67;18.73;;;12.80;99.90;;;;;;6160785;23;20155;-84
2021/10/26 01:26:21;;;;;;;27.17;16.70;;;12.70;99.90;;;;;;6161126;23;20207;-84
2021/10/26 01:28:47;;;;;;;28.73;17.40;;;12.70;99.90;;;;;;6161082;23;20159;-84
2021/10/26 01:31:13;;;;;;;25.13;15.00;;;12.70;99.90;;;;;;6161431;23;20161;-84
2021/10/26 01:33:39;;;;;;;27.73;16.20;;;12.80;99.90;;;;;;6160648;23;20160;-84
2021/10/26 01:36:05;;;;;;;37.60;20.07;;;12.90;99.90;;;;;;6160822;23;20534;-84
2021/10/26 01:38:30;;;;;;;28.17;16.17;;;12.90;99.90;;;;;;6161303;23;20156;-84
2021/10/26 01:40:56;;;;;;;26.27;14.60;;;12.80;99.90;;;;;;6160952;23;20604;-84
2021/10/26 01:43:22;;;;;;;28.77;15.80;;;12.80;99.90;;;;;;6160697;23;20165;-84
2021/10/26 01:45:51;;;;;;;28.60;15.13;;;12.70;99.90;;;;;;6161144;23;20152;-84
2021/10/26 01:48:16;;;;;;;26.83;15.73;;;12.70;99.90;;;;;;6160414;23;20172;-84
2021/10/26 01:50:42;;;;;;;23.93;14.47;;;12.60;99.90;;;;;;6161174;23;20199;-84
2021/10/26 01:53:08;;;;;;;23.80;14.30;;;12.70;99.90;;;;;;6161161;23;20145;-84
2021/10/26 01:55:34;;;;;;;27.50;14.50;;;12.70;99.90;;;;;;6160304;23;20575;-84
2021/10/26 01:58:01;;;;;;;27.27;14.87;;;12.70;99.90;;;;;;6160929;23;20175;-84
2021/10/26 02:00:27;;;;;;;29.23;16.50;;;12.70;99.90;;;;;;6160455;23;20488;-84
2021/10/26 02:02:52;;;;;;;28.60;15.60;;;12.70;99.90;;;;;;6161036;23;20149;-84
2021/10/26 02:05:18;;;;;;;28.63;14.40;;;12.70;99.90;;;;;;6160505;23;20156;-84
2021/10/26 02:07:46;;;;;;;29.80;14.40;;;12.70;99.90;;;;;;6160863;23;20180;-84
2021/10/26 02:10:12;;;;;;;26.70;14.13;;;12.70;99.90;;;;;;6160427;23;20167;-84
2021/10/26 02:12:38;;;;;;;23.90;14.57;;;12.60;99.90;;;;;;6160456;23;20192;-84
2021/10/26 02:15:05;;;;;;;26.97;15.13;;;12.70;99.90;;;;;;6160062;23;20641;-84
2021/10/26 02:17:31;;;;;;;24.57;13.60;;;12.60;99.90;;;;;;6159801;23;20635;-84
2021/10/26 02:19:57;;;;;;;23.87;14.00;;;12.60;99.90;;;;;;6160781;23;20231;-84
2021/10/26 02:22:23;;;;;;;26.27;14.23;;;12.60;99.90;;;;;;6159884;23;20196;-84
2021/10/26 02:24:49;;;;;;;25.03;14.60;;;12.60;99.90;;;;;;6160323;23;20145;-84
2021/10/26 02:27:15;;;;;;;25.60;14.23;;;12.50;99.90;;;;;;6159815;23;20152;-84
2021/10/26 02:29:43;;;;;;;30.83;14.43;;;12.60;99.90;;;;;;6159906;23;20845;-83
2021/10/26 02:32:09;;;;;;;23.87;13.77;;;12.50;99.90;;;;;;6160346;23;20161;-84
2021/10/26 02:34:35;;;;;;;29.27;14.63;;;12.50;99.90;;;;;;6160081;23;20161;-84
2021/10/26 02:37:00;;;;;;;30.33;13.57;;;12.40;99.90;;;;;;6160365;23;20149;-84
2021/10/26 02:39:26;;;;;;;24.27;13.70;;;12.40;99.90;;;;;;6160618;23;20152;-84
2021/10/26 02:41:52;;;;;;;29.50;14.20;;;12.40;99.90;;;;;;6160443;23;20192;-84
2021/10/26 02:44:18;;;;;;;24.77;13.73;;;12.50;99.90;;;;;;6159836;23;20168;-84
2021/10/26 02:46:44;;;;;;;25.17;13.57;;;12.50;99.90;;;;;;6160021;23;20159;-84
2021/10/26 02:49:10;;;;;;;25.37;13.10;;;12.40;99.90;;;;;;6160128;23;20219;-84
2021/10/26 02:51:36;;;;;;;24.30;13.23;;;12.20;99.90;;;;;;6160577;23;20148;-84
2021/10/26 02:54:02;;;;;;;31.60;12.93;;;12.30;99.90;;;;;;6160475;23;20155;-84
2021/10/26 02:56:28;;;;;;;23.80;12.70;;;12.40;99.90;;;;;;6159821;23;20156;-84
2021/10/26 02:58:55;;;;;;;28.53;11.73;;;12.40;99.90;;;;;;6160111;23;20148;-85
2021/10/26 03:01:20;;;;;;;23.70;12.47;;;12.30;99.90;;;;;;6160039;23;20195;-84
2021/10/26 03:03:46;;;;;;;27.70;13.03;;;12.20;99.90;;;;;;6160212;23;20322;-84
2021/10/26 03:06:13;;;;;;;21.80;12.20;;;12.30;99.90;;;;;;6159968;23;20239;-83
2021/10/26 03:08:39;;;;;;;23.83;12.37;;;12.30;99.90;;;;;;6160248;23;20155;-86
2021/10/26 03:11:04;;;;;;;20.77;12.23;;;12.30;99.90;;;;;;6159767;23;20475;-86
2021/10/26 03:13:31;;;;;;;22.07;12.37;;;12.30;99.90;;;;;;6159928;23;20230;-86
2021/10/26 03:15:58;;;;;;;26.30;12.97;;;12.20;99.90;;;;;;6159712;23;20149;-84
2021/10/26 03:18:24;;;;;;;23.97;12.10;;;12.20;99.90;;;;;;6160241;23;20192;-86
2021/10/26 03:20:51;;;;;;;18.63;11.80;;;12.20;99.90;;;;;;6159768;23;20275;-86
2021/10/26 03:23:17;;;;;;;18.50;11.57;;;12.20;99.90;;;;;;6159902;23;20169;-84
2021/10/26 03:25:43;;;;;;;21.73;12.37;;;12.30;99.90;;;;;;6159810;23;20156;-83
2021/10/26 03:28:10;;;;;;;20.73;11.93;;;12.30;99.90;;;;;;6159388;23;20229;-83
2021/10/26 03:30:36;;;;;;;25.07;11.47;;;12.20;99.90;;;;;;6159714;23;20152;-85
2021/10/26 03:33:02;;;;;;;26.10;12.33;;;12.20;99.90;;;;;;6159676;23;20164;-83
2021/10/26 03:35:27;;;;;;;22.00;11.13;;;12.20;99.90;;;;;;6159551;23;20481;-83
2021/10/26 03:37:53;;;;;;;22.33;10.63;;;12.30;99.90;;;;;;6160151;23;20152;-86
2021/10/26 03:40:19;;;;;;;23.80;11.80;;;12.30;99.90;;;;;;6159415;23;20491;-84
2021/10/26 03:42:44;;;;;;;20.87;10.97;;;12.40;99.90;;;;;;6159034;23;20180;-84
2021/10/26 03:45:11;;;;;;;21.83;11.37;;;12.40;99.90;;;;;;6159692;23;20642;-85
2021/10/26 03:47:42;;;;;;;27.83;12.13;;;12.30;99.90;;;;;;6159356;23;20166;-84
2021/10/26 03:50:09;;;;;;;20.03;10.67;;;12.30;99.90;;;;;;6160461;23;20145;-86
2021/10/26 03:52:35;;;;;;;16.93;10.33;;;12.30;99.90;;;;;;6187134;23;20192;-86
2021/10/26 03:55:01;;;;;;;23.23;11.40;;;12.20;99.90;;;;;;6160321;23;20632;-85
2021/10/26 03:57:26;;;;;;;32.27;12.27;;;12.20;99.90;;;;;;6159158;23;20207;-85
2021/10/26 03:59:52;;;;;;;20.30;11.03;;;12.10;99.90;;;;;;6160054;23;20177;-85
2021/10/26 04:02:23;;;;;;;21.50;10.03;;;12.10;99.90;;;;;;6159195;23;20608;-85
2021/10/26 04:04:50;;;;;;;20.63;11.10;;;12.10;99.90;;;;;;6159639;23;20593;-85
2021/10/26 04:07:16;;;;;;;19.93;10.30;;;12.20;99.90;;;;;;6185834;23;20137;-85
2021/10/26 04:12:24;;;;;;;20.30;10.67;;;12.10;99.90;;;;;;6194224;23;20184;-85
2021/10/26 04:14:52;;;;;;;20.50;10.50;;;12.10;99.90;;;;;;6159889;23;20565;-85
2021/10/26 04:17:19;;;;;;;21.73;10.37;;;12.10;99.90;;;;;;6159610;23;20164;-85
2021/10/26 04:19:46;;;;;;;21.30;10.77;;;12.10;99.90;;;;;;6159615;23;20152;-85
2021/10/26 04:22:14;;;;;;;19.87;10.63;;;12.10;99.90;;;;;;6159346;23;20641;-85
2021/10/26 04:24:40;;;;;;;17.43;10.57;;;12.10;99.90;;;;;;6159815;23;20153;-85
2021/10/26 04:27:05;;;;;;;19.23;11.17;;;12.00;99.90;;;;;;6159124;23;20465;-86
2021/10/26 04:29:31;;;;;;;26.93;10.67;;;12.10;99.90;;;;;;6159423;23;20633;-85
2021/10/26 04:31:57;;;;;;;26.53;12.57;;;12.00;99.90;;;;;;6159480;23;20153;-85
2021/10/26 04:34:22;;;;;;;24.10;11.50;;;12.10;99.90;;;;;;6159415;23;20160;-85
2021/10/26 04:36:48;;;;;;;23.73;11.57;;;12.30;99.90;;;;;;6159913;23;20152;-85
2021/10/26 04:39:13;;;;;;;25.93;12.07;;;12.20;99.90;;;;;;6159521;23;20207;-85
2021/10/26 04:41:40;;;;;;;24.97;11.90;;;12.20;99.90;;;;;;6159205;23;20189;-85
2021/10/26 04:44:06;;;;;;;24.80;13.27;;;12.10;99.90;;;;;;6159488;23;20215;-85
2021/10/26 04:46:34;;;;;;;21.40;12.03;;;12.20;99.90;;;;;;6161473;23;20587;-85
2021/10/26 04:49:00;;;;;;;25.13;12.40;;;12.10;99.90;;;;;;6161014;23;20219;-85
2021/10/26 04:51:26;;;;;;;30.07;13.00;;;12.10;99.90;;;;;;6160853;23;20582;-85
2021/10/26 04:53:52;;;;;;;25.17;12.60;;;12.00;99.90;;;;;;6161110;23;20148;-85
2021/10/26 04:56:17;;;;;;;27.43;13.53;;;12.10;99.90;;;;;;6160684;23;20203;-84
2021/10/26 04:58:43;;;;;;;23.03;12.93;;;12.00;99.90;;;;;;6161282;23;20188;-85
2021/10/26 05:01:09;;;;;;;29.70;13.03;;;12.00;99.90;;;;;;6161156;23;20177;-85
2021/10/26 05:03:35;;;;;;;25.93;13.20;;;12.00;99.90;;;;;;6160882;23;20153;-84
2021/10/26 05:06:02;;;;;;;22.17;11.77;;;11.90;99.90;;;;;;6161358;23;20160;-85
2021/10/26 05:08:28;;;;;;;23.60;12.57;;;11.90;99.90;;;;;;6161311;23;20176;-85
2021/10/26 05:10:54;;;;;;;22.50;11.50;;;11.90;99.90;;;;;;6161231;23;20155;-85
2021/10/26 05:13:20;;;;;;;24.30;12.47;;;11.80;99.90;;;;;;6160997;23;20251;-85
2021/10/26 05:15:46;;;;;;;23.67;11.67;;;11.80;99.90;;;;;;6160956;23;20145;-85
2021/10/26 05:18:13;;;;;;;20.90;11.27;;;11.80;99.90;;;;;;6160977;23;20226;-84
2021/10/26 05:20:40;;;;;;;22.37;11.47;;;11.80;99.90;;;;;;6160803;23;20148;-84
2021/10/26 05:23:06;;;;;;;25.37;12.93;;;11.90;99.90;;;;;;6160811;23;20634;-85
2021/10/26 05:25:33;;;;;;;28.20;12.77;;;11.80;99.90;;;;;;6160329;23;20153;-85
2021/10/26 05:28:00;;;;;;;26.77;13.20;;;11.80;99.90;;;;;;6160508;23;20747;-85
2021/10/26 05:30:26;;;;;;;23.10;11.87;;;11.70;99.90;;;;;;6161343;23;20145;-84
2021/10/26 05:32:52;;;;;;;30.87;12.57;;;11.60;99.90;;;;;;6160973;23;20184;-84
2021/10/26 05:35:17;;;;;;;24.03;12.57;;;11.60;99.90;;;;;;6160793;23;20460;-84
2021/10/26 05:37:43;;;;;;;21.77;13.23;;;11.60;99.90;;;;;;6160716;23;20156;-84
2021/10/26 05:40:09;;;;;;;25.60;13.60;;;11.70;99.90;;;;;;6160303;23;20168;-84
2021/10/26 05:42:35;;;;;;;25.87;13.20;;;11.60;99.90;;;;;;6160643;23;20189;-83
2021/10/26 05:45:02;;;;;;;25.67;12.83;;;11.70;99.90;;;;;;6160413;23;20149;-84
2021/10/26 05:47:28;;;;;;;24.77;13.93;;;11.70;99.90;;;;;;6160301;23;20235;-84
2021/10/26 05:49:55;;;;;;;26.50;14.13;;;11.80;99.90;;;;;;6160291;23;20203;-84
2021/10/26 05:52:21;;;;;;;27.47;13.67;;;11.80;99.90;;;;;;6160149;23;20228;-84
2021/10/26 05:54:46;;;;;;;24.63;14.37;;;12.00;99.90;;;;;;6160046;23;20184;-84
2021/10/26 05:57:12;;;;;;;28.80;14.97;;;12.00;99.90;;;;;;6160057;23;20575;-85
2021/10/26 05:59:37;;;;;;;28.43;13.67;;;11.90;99.90;;;;;;6160085;23;20188;-85
2021/10/26 06:02:03;;;;;;;26.97;14.93;;;11.90;99.90;;;;;;6160381;23;20234;-85
2021/10/26 06:04:29;;;;;;;24.93;14.03;;;11.90;99.90;;;;;;6160550;23;20153;-84
2021/10/26 06:06:55;;;;;;;33.37;15.60;;;11.80;99.90;;;;;;6160479;23;20195;-85
2021/10/26 06:09:21;;;;;;;28.90;15.20;;;11.90;99.90;;;;;;6158613;23;20153;-84
2021/10/26 06:11:49;;;;;;;29.33;15.30;;;11.80;99.90;;;;;;6160302;23;20155;-85
2021/10/26 06:14:14;;;;;;;29.07;14.50;;;11.80;99.90;;;;;;6186712;23;20259;-84
2021/10/26 06:16:41;;;;;;;34.37;15.83;;;11.80;99.90;;;;;;6160318;23;20141;-84
2021/10/26 06:19:07;;;;;;;26.33;14.93;;;11.80;99.90;;;;;;6160099;23;20586;-85
2021/10/26 06:21:33;;;;;;;33.27;15.73;;;11.70;99.90;;;;;;6185660;23;20274;-84
2021/10/26 06:24:00;;;;;;;34.47;15.77;;;11.80;99.90;;;;;;6160282;23;20176;-84
2021/10/26 06:26:26;;;;;;;28.70;14.73;;;11.80;99.90;;;;;;6186185;23;20140;-85
2021/10/26 06:28:52;;;;;;;27.30;14.67;;;11.80;99.90;;;;;;6160163;23;20145;-85
2021/10/26 06:31:18;;;;;;;27.57;15.07;;;11.80;99.90;;;;;;6159754;23;20203;-85
2021/10/26 06:33:45;;;;;;;28.33;14.53;;;11.90;99.90;;;;;;6160092;23;20157;-85
2021/10/26 06:36:11;;;;;;;31.53;15.67;;;11.90;99.90;;;;;;6157927;23;20160;-81
2021/10/26 06:38:38;;;;;;;30.70;15.83;;;11.90;99.90;;;;;;6152530;23;20223;-83
2021/10/26 06:41:04;;;;;;;25.43;15.23;;;11.90;99.90;;;;;;6158980;23;20176;-86
2021/10/26 06:43:32;;;;;;;27.03;15.23;;;12.00;99.90;;;;;;6185585;23;20174;-84
2021/10/26 06:45:58;;;;;;;31.53;15.53;;;12.00;99.90;;;;;;6160040;23;20539;-82
2021/10/26 06:48:24;;;;;;;31.20;15.93;;;12.10;99.90;;;;;;6185543;23;20137;-82
2021/10/26 06:50:50;;;;;;;32.63;16.17;;;12.10;99.90;;;;;;6159883;23;20537;-82
2021/10/26 06:53:17;;;;;;;34.03;14.30;;;12.10;99.90;;;;;;6159746;23;20141;-82
2021/10/26 06:55:44;;;;;;;31.93;14.37;;;12.00;99.90;;;;;;6159585;23;20577;-82
2021/10/26 06:58:10;;;;;;;29.83;14.33;;;12.00;99.90;;;;;;6159583;23;20279;-86
2021/10/26 07:00:36;;;;;;;32.87;14.93;;;12.10;99.90;;;;;;6159265;23;20151;-87
2021/10/26 07:03:04;;;;;;;27.33;14.07;;;12.10;99.90;;;;;;6159260;23;20167;-86
2021/10/26 07:05:32;;;;;;;27.40;13.90;;;12.20;99.90;;;;;;6158745;23;20151;-87
2021/10/26 07:07:58;;;;;;;31.87;14.87;;;12.20;99.90;;;;;;6159045;23;20601;-85
2021/10/26 07:10:24;;;;;;;25.97;13.57;;;12.30;99.90;;;;;;6159380;23;20484;-83
2021/10/26 07:12:50;;;;;;;26.97;13.90;;;12.30;99.90;;;;;;6159186;23;20168;-86
2021/10/26 07:15:16;;;;;;;26.60;13.93;;;12.40;99.90;;;;;;6159001;23;20144;-87
2021/10/26 07:17:43;;;;;;;26.33;13.17;;;12.40;99.90;;;;;;6159093;23;20152;-84
2021/10/26 07:20:11;;;;;;;28.90;13.60;;;12.40;99.90;;;;;;6185188;23;20137;-84
2021/10/26 07:22:37;;;;;;;26.67;13.90;;;12.40;99.90;;;;;;6161070;23;20192;-80
2021/10/26 07:25:09;;;;;;;27.37;13.60;;;12.50;99.90;;;;;;6160383;23;20153;-85
2021/10/26 07:27:39;;;;;;;30.50;12.87;;;12.60;99.90;;;;;;6159466;23;20152;-87
2021/10/26 07:30:08;;;;;;;30.27;12.53;;;12.50;99.90;;;;;;6159754;23;20236;-84
2021/10/26 07:32:34;;;;;;;27.53;13.73;;;12.40;99.90;;;;;;6186182;23;20149;-85
2021/10/26 07:35:00;;;;;;;28.13;13.80;;;12.50;99.90;;;;;;6159241;23;20534;-85
2021/10/26 07:37:33;;;;;;;27.77;12.87;;;12.50;99.90;;;;;;6182791;23;20140;-82
2021/10/26 07:39:59;;;;;;;26.67;14.43;;;12.50;99.90;;;;;;6159193;23;20574;-81
2021/10/26 07:42:25;;;;;;;25.83;14.27;;;12.50;99.90;;;;;;6158700;23;20268;-81
2021/10/26 07:44:52;;;;;;;27.03;12.83;;;12.50;99.90;;;;;;6158737;23;20145;-83
2021/10/26 07:47:20;;;;;;;27.47;14.73;;;12.50;99.90;;;;;;6159638;23;20153;-85
2021/10/26 07:49:48;;;;;;;25.03;13.77;;;12.50;99.90;;;;;;6185251;23;20610;-86
2021/10/26 07:52:15;;;;;;;32.53;14.30;;;12.40;99.90;;;;;;6159738;23;20159;-81
2021/10/26 07:54:45;;;;;;;26.37;13.90;;;12.50;99.90;;;;;;6159029;23;20244;-81
2021/10/26 07:57:10;;;;;;;28.73;14.23;;;12.40;99.90;;;;;;6157580;23;20148;-83
2021/10/26 07:59:36;;;;;;;30.73;14.47;;;12.40;99.90;;;;;;6159305;23;20152;-85
2021/10/26 08:02:02;;;;;;;26.80;13.80;;;12.40;99.90;;;;;;6158956;23;20522;-84
2021/10/26 08:04:27;;;;;;;34.00;15.43;;;12.50;99.90;;;;;;6158617;23;20152;-84
2021/10/26 08:06:54;;;;;;;27.17;15.37;;;12.50;99.90;;;;;;6159365;23;20546;-81
2021/10/26 08:09:20;;;;;;;32.53;15.70;;;12.60;99.90;;;;;;6159092;23;20149;-80
2021/10/26 08:11:46;;;;;;;28.53;14.83;;;12.70;99.90;;;;;;6158979;23;20172;-81
2021/10/26 08:14:12;;;;;;;28.87;15.30;;;12.80;99.90;;;;;;6159175;23;20167;-80
2021/10/26 08:16:38;;;;;;;28.10;14.50;;;12.80;99.90;;;;;;6158981;23;20456;-81
2021/10/26 08:19:05;;;;;;;33.20;15.00;;;12.70;99.90;;;;;;6159347;23;20163;-81
2021/10/26 08:21:32;;;;;;;28.17;16.00;;;12.80;99.90;;;;;;6160727;23;20196;-81
2021/10/26 08:23:59;;;;;;;30.53;14.80;;;12.90;99.90;;;;;;6160787;23;20156;-80
2021/10/26 08:26:29;;;;;;;27.20;15.00;;;12.80;99.90;;;;;;6160786;23;20163;-80
2021/10/26 08:29:07;;;;;;;24.10;14.20;;;12.80;99.90;;;;;;6160950;23;20461;-81
2021/10/26 08:31:45;;;;;;;31.37;15.07;;;13.00;99.90;;;;;;6187030;23;20591;-81
2021/10/26 08:34:32;;;;;;;34.80;15.70;;;13.00;99.90;;;;;;6160233;23;20586;-81
2021/10/26 08:36:57;;;;;;;29.43;15.37;;;12.90;99.90;;;;;;6187530;23;20137;-81
2021/10/26 08:39:23;;;;;;;32.70;15.60;;;12.90;99.90;;;;;;6160720;23;20579;-81
2021/10/26 08:41:51;;;;;;;25.47;13.80;;;13.00;99.90;;;;;;6160462;23;20610;-85
2021/10/26 08:44:18;;;;;;;27.37;13.80;;;13.00;99.90;;;;;;6187287;23;20146;-84
2021/10/26 08:46:45;;;;;;;27.60;12.77;;;13.00;99.90;;;;;;6160618;23;20148;-82
2021/10/26 08:49:14;;;;;;;21.10;13.57;;;13.10;99.90;;;;;;6160620;23;20195;-80
2021/10/26 08:51:41;;;;;;;27.43;12.00;;;13.20;99.90;;;;;;6186975;23;20183;-80
2021/10/26 08:54:07;;;;;;;22.83;11.37;;;13.30;99.90;;;;;;6160430;23;20161;-81
2021/10/26 08:56:33;;;;;;;23.00;12.47;;;13.30;99.90;;;;;;6160666;23;20280;-81
2021/10/26 08:59:00;;;;;;;24.33;11.30;;;13.40;99.90;;;;;;6186719;23;20145;-82
2021/10/26 09:01:26;;;;;;;24.63;11.23;;;13.50;99.90;;;;;;6160017;23;20274;-81
2021/10/26 09:03:53;;;;;;;24.03;11.57;;;13.40;99.90;;;;;;6160309;23;20145;-81
2021/10/26 09:06:25;;;;;;;25.03;11.90;;;13.40;99.90;;;;;;6160527;23;20156;-81
2021/10/26 09:08:54;;;;;;;24.80;12.10;;;13.40;99.90;;;;;;6186569;23;20195;-81
2021/10/26 09:11:33;;;;;;;18.73;10.10;;;13.40;99.90;;;;;;6160380;23;20172;-81
2021/10/26 09:16:46;;;;;;;22.13;10.27;;;13.40;99.90;;;;;;6186573;23;20148;-83
2021/10/26 09:19:19;;;;;;;24.37;10.13;;;13.50;99.90;;;;;;6160188;23;20152;-83
2021/10/26 09:21:58;;;;;;;17.90;9.77;;;13.60;99.90;;;;;;6160090;23;20203;-83
2021/10/26 09:24:24;;;;;;;28.53;9.77;;;13.60;99.90;;;;;;6160128;23;20184;-82
2021/10/26 09:26:56;;;;;;;19.43;8.67;;;13.60;99.90;;;;;;6160238;23;20157;-82
2021/10/26 09:29:28;;;;;;;20.17;8.50;;;13.60;99.90;;;;;;6159952;23;20152;-84
2021/10/26 09:32:03;;;;;;;16.67;7.83;;;13.70;99.90;;;;;;6159858;23;20216;-81
2021/10/26 09:34:41;;;;;;;17.50;7.90;;;13.70;99.90;;;;;;6160112;23;20164;-82
2021/10/26 09:37:07;;;;;;;15.37;7.70;;;13.80;99.90;;;;;;6160234;23;20151;-80
2021/10/26 09:39:33;;;;;;;20.53;8.10;;;13.80;99.90;;;;;;6186408;23;20161;-81
2021/10/26 09:42:03;;;;;;;13.87;7.70;;;13.90;99.90;;;;;;6160006;23;20185;-83
2021/10/26 09:44:38;;;;;;;18.13;7.20;;;13.90;99.90;;;;;;6159780;23;20148;-81
2021/10/26 09:47:11;;;;;;;20.87;8.93;;;13.90;99.90;;;;;;6160044;23;20149;-81
2021/10/26 09:49:39;;;;;;;18.70;8.40;;;13.90;99.90;;;;;;6159660;23;20591;-81
2021/10/26 09:52:26;;;;;;;19.47;8.73;;;14.00;99.90;;;;;;6186274;23;20593;-80
2021/10/26 09:55:05;;;;;;;15.47;7.77;;;14.10;99.90;;;;;;6159974;23;20549;-84
2021/10/26 09:57:36;;;;;;;13.27;6.63;;;14.10;99.90;;;;;;6159828;23;20162;-84
2021/10/26 10:00:05;;;;;;;14.77;7.43;;;14.10;99.90;;;;;;6159805;23;20587;-83
2021/10/26 10:02:31;;;;;;;15.13;6.67;;;14.10;99.90;;;;;;6186415;23;20193;-82
2021/10/26 10:04:58;;;;;;;13.70;6.73;;;14.20;99.90;;;;;;6159943;23;20157;-85
2021/10/26 10:07:38;;;;;;;14.63;6.57;;;14.30;99.90;;;;;;6160038;23;20157;-85
2021/10/26 10:10:09;;;;;;;17.13;6.30;;;14.30;99.90;;;;;;6186449;23;20144;-81
2021/10/26 10:12:37;;;;;;;14.50;6.27;;;14.40;99.90;;;;;;6159649;23;20518;-82
2021/10/26 10:15:05;;;;;;;15.73;7.10;;;14.60;99.90;;;;;;6159862;23;20485;-81
2021/10/26 10:17:34;;;;;;;11.33;6.30;;;14.70;99.90;;;;;;6159629;23;20234;-80
2021/10/26 10:20:00;;;;;;;13.57;6.13;;;14.90;99.90;;;;;;6159689;23;20211;-81
2021/10/26 10:22:30;;;;;;;15.57;6.40;;;15.10;99.90;;;;;;6159834;23;20282;-80
2021/10/26 10:25:03;;;;;;;17.70;6.30;;;15.40;99.90;;;;;;6159707;23;20174;-81
2021/10/26 10:27:31;;;;;;;14.43;6.93;;;15.60;99.90;;;;;;6160003;23;20519;-81
2021/10/26 10:29:57;;;;;;;16.93;6.37;;;16.00;99.90;;;;;;6159056;23;20154;-85
2021/10/26 10:32:25;;;;;;;14.17;6.03;;;16.60;99.90;;;;;;6160847;23;20610;-84
2021/10/26 10:34:52;;;;;;;12.80;5.97;;;17.20;99.90;;;;;;6161056;23;20572;-81
2021/10/26 10:37:23;;;;;;;12.83;5.80;;;17.70;99.90;;;;;;6160964;23;20145;-80
2021/10/26 10:39:50;;;;;;;12.70;5.43;;;17.90;99.90;;;;;;6159506;23;20164;-85
2021/10/26 10:42:21;;;;;;;13.20;5.50;;;18.40;99.90;;;;;;6159323;23;20195;-84
2021/10/26 10:44:47;;;;;;;11.17;5.00;;;18.50;99.90;;;;;;6185409;23;20566;-81
2021/10/26 10:47:36;;;;;;;11.60;5.40;;;18.70;99.90;;;;;;6159333;23;20162;-80
2021/10/26 10:50:04;;;;;;;14.57;5.67;;;18.80;99.90;;;;;;6141656;23;20230;-81
2021/10/26 10:52:31;;;;;;;10.20;5.27;;;18.70;99.90;;;;;;6159281;23;20275;-81
2021/10/26 10:54:57;;;;;;;12.83;5.37;;;18.30;99.90;;;;;;6159071;23;20231;-81
2021/10/26 10:57:34;;;;;;;12.30;4.97;;;17.50;99.90;;;;;;6158745;23;20360;-81
2021/10/26 11:00:17;;;;;;;13.17;5.97;;;16.70;99.90;;;;;;6159260;23;20149;-80
2021/10/26 11:02:47;;;;;;;13.10;5.00;;;16.50;99.90;;;;;;6159046;23;20201;-80
2021/10/26 11:05:40;;;;;;;14.30;5.17;;;16.50;99.90;;;;;;6159017;23;20154;-80
2021/10/26 11:08:33;;;;;;;10.20;5.00;;;16.40;99.90;;;;;;6159708;23;20250;-84
2021/10/26 11:11:00;;;;;;;10.70;3.90;;;16.60;99.90;;;;;;6159419;23;20184;-84
2021/10/26 11:13:31;;;;;;;7.50;3.10;;;17.30;99.90;;;;;;6162113;23;20167;-85
2021/10/26 11:15:59;;;;;;;10.33;3.23;;;17.30;99.90;;;;;;6161360;23;20166;-81
2021/10/26 11:18:44;;;;;;;8.07;3.57;;;17.60;99.90;;;;;;6160088;23;20177;-81
2021/10/26 11:21:30;;;;;;;10.97;2.67;;;18.50;99.90;;;;;;6158877;23;20192;-81
2021/10/26 11:23:59;;;;;;;5.80;2.37;;;19.50;99.90;;;;;;6167173;23;20168;-83
2021/10/26 11:26:42;;;;;;;7.10;2.77;;;19.80;99.90;;;;;;6162972;23;20163;-86
2021/10/26 11:29:13;;;;;;;11.43;3.37;;;21.00;99.90;;;;;;6160101;23;20154;-86
2021/10/26 11:31:50;;;;;;;6.40;2.57;;;21.80;99.80;;;;;;6159629;23;20211;-85
2021/10/26 11:34:22;;;;;;;13.73;3.57;;;22.00;98.80;;;;;;6159842;23;20152;-85
2021/10/26 11:37:04;;;;;;;8.07;2.60;;;21.90;98.60;;;;;;6159660;23;20490;-85
2021/10/26 11:39:30;;;;;;;7.53;2.97;;;21.40;99.10;;;;;;6186242;23;20137;-85
2021/10/26 11:41:59;;;;;;;9.07;3.17;;;21.70;99.10;;;;;;6159116;23;20192;-86
2021/10/26 11:44:27;;;;;;;7.33;2.57;;;22.20;98.00;;;;;;6160004;23;20145;-82
2021/10/26 11:46:52;;;;;;;8.93;2.87;;;22.10;97.90;;;;;;6185435;23;20140;-82
2021/10/26 11:49:21;;;;;;;8.30;2.90;;;21.40;99.10;;;;;;6159220;23;20205;-81
2021/10/26 11:52:04;;;;;;;7.37;2.90;;;20.50;99.80;;;;;;6158867;23;20149;-81
2021/10/26 11:54:33;;;;;;;11.40;3.60;;;19.60;99.90;;;;;;6160163;23;20175;-81
2021/10/26 11:57:09;;;;;;;10.70;3.60;;;18.70;99.90;;;;;;6160977;23;20194;-82
2021/10/26 11:59:34;;;;;;;7.57;2.93;;;18.10;99.90;;;;;;6161148;23;20227;-82
2021/10/26 12:02:04;;;;;;;11.17;3.33;;;18.00;99.90;;;;;;6160707;23;20568;-82
2021/10/26 12:04:35;;;;;;;8.43;3.20;;;17.90;99.90;;;;;;6160811;23;20166;-82
2021/10/26 12:07:21;;;;;;;9.73;2.87;;;18.30;99.90;;;;;;6187284;23;20164;-84
2021/10/26 12:09:49;;;;;;;4.67;2.30;;;19.30;99.90;;;;;;6161106;23;20224;-84
2021/10/26 12:12:21;;;;;;;7.40;2.90;;;19.80;99.90;;;;;;6161264;23;20193;-83
2021/10/26 12:15:01;;;;;;;8.80;3.57;;;19.70;99.90;;;;;;6161666;23;20144;-84
2021/10/26 12:17:26;;;;;;;13.83;3.40;;;19.60;99.90;;;;;;6161306;23;20157;-82
2021/10/26 12:20:07;;;;;;;7.07;2.73;;;20.00;99.90;;;;;;6161632;23;20156;-85
2021/10/26 12:22:40;;;;;;;7.73;2.77;;;20.60;99.90;;;;;;6161241;23;20198;-85
2021/10/26 12:25:27;;;;;;;5.20;2.43;;;21.30;99.50;;;;;;6161291;23;20154;-85
2021/10/26 12:28:04;;;;;;;8.33;2.50;;;21.30;99.10;;;;;;6161481;23;20175;-85
2021/10/26 12:30:33;;;;;;;8.30;2.90;;;21.10;99.20;;;;;;6161801;23;20152;-85
2021/10/26 12:33:00;;;;;;;8.20;2.80;;;21.20;99.70;;;;;;6161529;23;20197;-85
2021/10/26 12:35:45;;;;;;;7.30;3.10;;;21.10;99.30;;;;;;6161320;23;20168;-86
2021/10/26 12:38:21;;;;;;;5.10;2.60;;;21.50;98.80;;;;;;6161288;23;20152;-85
2021/10/26 12:40:49;;;;;;;10.87;3.07;;;21.30;98.70;;;;;;6161304;23;20242;-86